createdAt,value
2023-01-07T00:04:46.131Z,1.83
2023-01-07T00:09:50.918Z,2.30
2023-01-07T00:14:56.158Z,1.50
2023-01-07T00:20:01.575Z,1.65
2023-01-07T00:30:11.220Z,2.07
2023-01-07T00:35:25.915Z,1.02
2023-01-07T00:40:32.268Z,2.43
2023-01-07T00:45:37.463Z,1.93
2023-01-07T00:50:42.071Z,2.38
2023-01-07T00:55:50.485Z,1.27
2023-01-07T01:01:01.135Z,2.93
2023-01-07T01:06:08.050Z,2.93
2023-01-07T01:11:14.535Z,2.27
2023-01-07T01:16:19.560Z,1.93
2023-01-07T01:21:26.055Z,2.90
2023-01-07T01:26:29.792Z,2.07
2023-01-07T01:31:34.560Z,1.80
2023-01-07T01:36:44.526Z,2.20
2023-01-07T01:41:49.624Z,3.10
2023-01-07T01:46:55.699Z,2.35
2023-01-07T01:52:09.773Z,1.83
2023-01-07T01:57:22.497Z,2.37
2023-01-07T02:02:40.551Z,1.97
2023-01-07T02:07:44.702Z,2.90
2023-01-07T02:13:24.433Z,3.57
2023-01-07T02:18:48.267Z,3.53
2023-01-07T02:23:59.527Z,1.80
2023-01-07T02:29:20.490Z,1.90
2023-01-07T02:34:56.486Z,1.67
2023-01-07T02:40:49.731Z,2.23
2023-01-07T02:46:05.520Z,2.13
2023-01-07T02:51:13.360Z,1.60
2023-01-07T02:56:43.131Z,1.57
2023-01-07T03:02:11.564Z,2.30
2023-01-07T03:07:27.547Z,1.77
2023-01-07T03:12:49.557Z,2.00
2023-01-07T03:18:17.078Z,1.60
2023-01-07T03:23:27.608Z,1.77
2023-01-07T03:28:41.534Z,3.63
2023-01-07T03:34:02.497Z,3.20
2023-01-07T03:39:12.665Z,8.57
2023-01-07T03:44:17.923Z,8.87
2023-01-07T03:54:59.944Z,5.40
2023-01-07T04:05:27.406Z,5.43
2023-01-07T04:10:33.110Z,4.20
2023-01-07T04:15:39.492Z,5.23
2023-01-07T04:20:49.935Z,5.43
2023-01-07T04:25:55.518Z,5.30
2023-01-07T04:31:04.439Z,5.50
2023-01-07T04:36:14.152Z,6.27
2023-01-07T04:41:18.306Z,4.10
2023-01-07T04:46:23.604Z,5.97
2023-01-07T04:56:35.528Z,7.07
2023-01-07T05:01:41.212Z,6.82
2023-01-07T05:06:48.828Z,5.33
2023-01-07T05:11:56.165Z,6.37
2023-01-07T05:17:01.091Z,5.83
2023-01-07T05:22:08.947Z,5.33
2023-01-07T05:27:17.522Z,7.73
2023-01-07T05:32:24.620Z,8.23
2023-01-07T05:37:38.209Z,9.03
2023-01-07T05:42:45.803Z,10.80
2023-01-07T05:47:51.655Z,8.83
2023-01-07T05:52:55.415Z,9.50
2023-01-07T05:58:05.412Z,10.47
2023-01-07T06:03:11.925Z,7.60
2023-01-07T06:08:21.538Z,9.47
2023-01-07T06:13:25.489Z,8.80
2023-01-07T06:18:30.598Z,8.93
2023-01-07T06:23:35.512Z,8.97
2023-01-07T06:28:39.314Z,11.60
2023-01-07T06:33:43.377Z,9.17
2023-01-07T06:38:49.336Z,10.52
2023-01-07T06:43:55.847Z,10.33
2023-01-07T06:49:04.156Z,10.93
2023-01-07T06:54:11.798Z,11.33
2023-01-07T06:59:16.566Z,11.82
2023-01-07T07:04:23.783Z,9.63
2023-01-07T07:09:28.323Z,9.85
2023-01-07T07:14:34.434Z,9.20
2023-01-07T07:24:48.551Z,10.33
2023-01-07T07:29:52.505Z,7.83
2023-01-07T07:34:56.917Z,8.43
2023-01-07T07:40:01.637Z,9.20
2023-01-07T07:45:09.058Z,5.60
2023-01-07T07:50:15.001Z,5.07
2023-01-07T07:55:26.110Z,5.47
2023-01-07T08:00:34.812Z,4.90
2023-01-07T08:05:43.687Z,5.00
2023-01-07T08:10:50.893Z,4.70
2023-01-07T08:15:54.876Z,5.33
2023-01-07T08:21:01.455Z,4.53
2023-01-07T08:26:09.821Z,6.20
2023-01-07T08:31:22.262Z,4.97
2023-01-07T08:36:26.301Z,5.40
2023-01-07T08:41:31.406Z,5.83
2023-01-07T08:46:40.509Z,4.77
2023-01-07T08:51:45.576Z,6.60
2023-01-07T08:56:50.153Z,5.47
2023-01-07T09:01:54.226Z,4.90
2023-01-07T09:06:59.097Z,4.10
2023-01-07T09:17:16.475Z,4.27
2023-01-07T09:22:21.295Z,4.33
2023-01-07T09:27:32.071Z,5.40
2023-01-07T09:32:37.766Z,4.57
2023-01-07T09:37:44.280Z,3.67
2023-01-07T09:43:10.515Z,5.03
2023-01-07T09:48:38.148Z,4.87
2023-01-07T09:53:51.099Z,3.37
2023-01-07T09:59:00.118Z,4.83
2023-01-07T10:04:24.329Z,4.23
2023-01-07T10:10:13.760Z,4.43
2023-01-07T10:15:28.463Z,5.13
2023-01-07T10:20:57.685Z,4.00
2023-01-07T10:26:05.066Z,4.03
2023-01-07T10:31:22.407Z,4.37
2023-01-07T10:36:59.329Z,4.43
2023-01-07T10:42:35.256Z,5.40
2023-01-07T10:47:51.729Z,4.90
2023-01-07T10:53:23.315Z,4.73
2023-01-07T10:58:41.505Z,5.40
2023-01-07T11:03:46.286Z,7.03
2023-01-07T11:08:50.882Z,6.33
2023-01-07T11:14:08.135Z,5.70
2023-01-07T11:19:15.716Z,6.07
2023-01-07T11:24:20.669Z,5.20
2023-01-07T11:29:28.489Z,5.30
2023-01-07T11:34:49.715Z,5.33
2023-01-07T11:40:04.336Z,6.25
2023-01-07T11:45:16.129Z,4.80
2023-01-07T11:50:36.505Z,6.60
2023-01-07T11:55:41.187Z,7.33
2023-01-07T12:00:47.999Z,6.57
2023-01-07T12:05:58.923Z,6.87
2023-01-07T12:11:15.120Z,6.50
2023-01-07T12:16:31.410Z,6.82
2023-01-07T12:22:04.651Z,5.93
2023-01-07T12:27:54.870Z,5.55
2023-01-07T12:33:35.621Z,4.93
2023-01-07T12:38:55.683Z,4.33
2023-01-07T12:44:20.741Z,5.30
2023-01-07T12:49:45.942Z,5.17
2023-01-07T12:55:03.912Z,5.30
2023-01-07T13:00:27.440Z,5.93
2023-01-07T13:05:47.751Z,6.10
2023-01-07T13:11:49.677Z,6.22
2023-01-07T13:17:17.952Z,5.68
2023-01-07T13:22:41.824Z,6.00
2023-01-07T13:28:23.223Z,6.93
2023-01-07T13:33:48.113Z,6.90
2023-01-07T13:39:17.414Z,6.07
2023-01-07T13:45:12.472Z,6.15
2023-01-07T13:50:58.949Z,5.53
2023-01-07T13:56:40.508Z,5.75
2023-01-07T14:02:24.120Z,6.13
2023-01-07T14:07:34.572Z,6.20
2023-01-07T14:13:21.345Z,5.57
2023-01-07T14:18:38.301Z,6.28
2023-01-07T14:24:12.756Z,6.87
2023-01-07T14:29:43.180Z,6.45
2023-01-07T14:34:59.270Z,6.55
2023-01-07T14:40:36.245Z,6.97
2023-01-07T14:45:41.298Z,6.95
2023-01-07T14:51:07.226Z,5.50
2023-01-07T14:56:21.656Z,5.40
2023-01-07T15:01:48.415Z,6.40
2023-01-07T15:06:57.959Z,5.90
2023-01-07T15:12:27.939Z,6.43
2023-01-07T15:17:35.047Z,6.68
2023-01-07T15:28:19.311Z,4.97
2023-01-07T15:33:46.666Z,7.22
2023-01-07T15:38:54.626Z,6.93
2023-01-07T15:44:09.679Z,7.97
2023-01-07T15:49:14.858Z,7.38
2023-01-07T15:54:40.688Z,8.18
2023-01-07T15:59:49.477Z,6.82
2023-01-07T16:04:58.422Z,7.82
2023-01-07T16:15:31.495Z,7.40
2023-01-07T16:20:50.189Z,7.13
2023-01-07T16:26:21.229Z,6.73
2023-01-07T16:31:30.969Z,7.63
2023-01-07T16:36:44.143Z,6.88
2023-01-07T16:41:48.208Z,7.45
2023-01-07T16:47:09.034Z,10.02
2023-01-07T16:52:15.906Z,8.45
2023-01-07T17:03:00.714Z,7.53
2023-01-07T17:08:23.496Z,7.07
2023-01-07T17:13:42.084Z,7.90
2023-01-07T17:18:54.091Z,7.95
2023-01-07T17:24:02.655Z,8.98
2023-01-07T17:29:13.801Z,8.23
2023-01-07T17:34:19.356Z,7.57
2023-01-07T17:39:24.825Z,8.00
2023-01-07T17:44:28.688Z,7.18
2023-01-07T17:49:33.623Z,7.13
2023-01-07T17:54:40.502Z,7.22
2023-01-07T17:59:49.671Z,7.10
2023-01-07T18:04:54.467Z,8.70
2023-01-07T18:09:59.956Z,6.43
2023-01-07T18:15:16.543Z,8.23
2023-01-07T18:20:24.288Z,6.38
2023-01-07T18:25:32.477Z,6.80
2023-01-07T18:30:40.493Z,6.88
2023-01-07T18:35:45.332Z,5.65
2023-01-07T18:40:50.466Z,7.63
2023-01-07T18:45:55.103Z,7.15
2023-01-07T18:50:59.789Z,7.93
2023-01-07T18:56:09.243Z,6.57
2023-01-07T19:01:15.346Z,7.45
2023-01-07T19:06:19.773Z,6.75
2023-01-07T19:11:23.727Z,5.22
2023-01-07T19:16:28.584Z,6.22
2023-01-07T19:21:33.307Z,6.45
2023-01-07T19:26:38.610Z,7.65
2023-01-07T19:31:46.234Z,6.20
2023-01-07T19:36:49.963Z,5.72
2023-01-07T19:41:53.878Z,4.55
2023-01-07T19:46:59.523Z,6.38
2023-01-07T19:52:06.191Z,5.75
2023-01-07T19:57:10.254Z,4.68
2023-01-07T20:02:15.460Z,5.07
2023-01-07T20:07:19.481Z,5.05
2023-01-07T20:12:25.055Z,4.88
2023-01-07T20:17:30.439Z,5.88
2023-01-07T20:22:37.383Z,4.95
2023-01-07T20:27:41.415Z,4.57
2023-01-07T20:32:47.681Z,5.95
2023-01-07T20:37:51.368Z,5.22
2023-01-07T20:42:59.585Z,5.47
2023-01-07T20:48:05.736Z,4.97
2023-01-07T20:53:12.086Z,4.82
2023-01-07T20:58:16.861Z,5.53
2023-01-07T21:03:20.596Z,5.50
2023-01-07T21:08:27.026Z,4.43
2023-01-07T21:13:32.456Z,4.68
2023-01-07T21:18:39.660Z,4.65
2023-01-07T21:23:49.583Z,4.93
2023-01-07T21:34:01.603Z,4.82
2023-01-07T21:39:06.496Z,4.82
2023-01-07T21:44:14.436Z,4.38
2023-01-07T21:49:20.281Z,4.35
2023-01-07T21:54:24.253Z,3.97
2023-01-07T21:59:28.117Z,3.95
2023-01-07T22:04:32.717Z,4.30
2023-01-07T22:09:36.477Z,4.20
2023-01-07T22:14:40.875Z,3.72
2023-01-07T22:19:44.790Z,4.72
2023-01-07T22:24:49.429Z,3.50
2023-01-07T22:29:57.860Z,4.22
2023-01-07T22:35:04.520Z,4.00
2023-01-07T22:40:10.267Z,3.55
2023-01-07T22:45:22.888Z,3.85
2023-01-07T22:50:28.904Z,3.63
2023-01-07T22:55:36.114Z,3.70
2023-01-07T23:00:52.790Z,4.18
2023-01-07T23:05:58.499Z,3.80
2023-01-07T23:11:02.543Z,4.43
2023-01-07T23:16:10.356Z,4.05
2023-01-07T23:21:15.496Z,4.40
2023-01-07T23:26:22.587Z,3.88
2023-01-07T23:31:27.736Z,4.10
2023-01-07T23:36:33.097Z,4.00
2023-01-07T23:41:38.677Z,3.63
2023-01-07T23:46:43.138Z,3.83
2023-01-07T23:51:50.414Z,4.40
2023-01-07T23:56:57.508Z,4.00
